sensor_id;sensor_type;location;lat;lon;timestamp;temperature;humidity
17887;DHT22;9069;52.044;7.472;2022-10-26T00:01:11;15.40;96.10
17887;DHT22;9069;52.044;7.472;2022-10-26T00:03:40;15.40;96.20
17887;DHT22;9069;52.044;7.472;2022-10-26T00:06:10;15.40;96.10
17887;DHT22;9069;52.044;7.472;2022-10-26T00:08:38;15.30;96.10
17887;DHT22;9069;52.044;7.472;2022-10-26T00:11:05;15.30;96.10
17887;DHT22;9069;52.044;7.472;2022-10-26T00:13:33;15.30;96.20
17887;DHT22;9069;52.044;7.472;2022-10-26T00:16:00;15.30;96.20
17887;DHT22;9069;52.044;7.472;2022-10-26T00:18:27;15.30;96.30
17887;DHT22;9069;52.044;7.472;2022-10-26T00:20:54;15.30;96.30
17887;DHT22;9069;52.044;7.472;2022-10-26T00:23:21;15.30;96.30
17887;DHT22;9069;52.044;7.472;2022-10-26T00:25:54;15.30;96.30
17887;DHT22;9069;52.044;7.472;2022-10-26T00:28:21;15.30;96.40
17887;DHT22;9069;52.044;7.472;2022-10-26T00:30:48;15.30;96.40
17887;DHT22;9069;52.044;7.472;2022-10-26T00:33:14;15.20;96.40
17887;DHT22;9069;52.044;7.472;2022-10-26T00:35:41;15.20;96.40
17887;DHT22;9069;52.044;7.472;2022-10-26T00:38:12;15.20;96.40
17887;DHT22;9069;52.044;7.472;2022-10-26T00:40:38;15.20;96.40
17887;DHT22;9069;52.044;7.472;2022-10-26T00:43:14;15.20;96.40
17887;DHT22;9069;52.044;7.472;2022-10-26T00:45:42;15.20;96.50
17887;DHT22;9069;52.044;7.472;2022-10-26T00:48:21;15.20;96.50
17887;DHT22;9069;52.044;7.472;2022-10-26T00:50:51;15.10;96.50
17887;DHT22;9069;52.044;7.472;2022-10-26T00:53:19;15.10;96.50
17887;DHT22;9069;52.044;7.472;2022-10-26T00:55:49;15.10;96.50
17887;DHT22;9069;52.044;7.472;2022-10-26T00:58:16;15.10;96.50
17887;DHT22;9069;52.044;7.472;2022-10-26T01:00:44;15.10;96.50
17887;DHT22;9069;52.044;7.472;2022-10-26T01:03:10;15.10;96.40
17887;DHT22;9069;52.044;7.472;2022-10-26T01:05:39;15.10;96.50
17887;DHT22;9069;52.044;7.472;2022-10-26T01:08:07;15.10;96.50
17887;DHT22;9069;52.044;7.472;2022-10-26T01:10:36;15.00;96.50
17887;DHT22;9069;52.044;7.472;2022-10-26T01:13:04;15.00;96.50
17887;DHT22;9069;52.044;7.472;2022-10-26T01:18:18;15.00;96.50
17887;DHT22;9069;52.044;7.472;2022-10-26T01:23:52;15.00;96.40
17887;DHT22;9069;52.044;7.472;2022-10-26T01:29:29;14.90;96.50
17887;DHT22;9069;52.044;7.472;2022-10-26T01:32:09;14.90;96.40
17887;DHT22;9069;52.044;7.472;2022-10-26T01:34:43;14.90;96.40
17887;DHT22;9069;52.044;7.472;2022-10-26T01:37:17;14.80;96.40
17887;DHT22;9069;52.044;7.472;2022-10-26T01:39:49;14.80;96.30
17887;DHT22;9069;52.044;7.472;2022-10-26T01:42:20;14.80;96.40
17887;DHT22;9069;52.044;7.472;2022-10-26T01:44:55;14.80;96.40
17887;DHT22;9069;52.044;7.472;2022-10-26T01:47:23;14.70;96.40
17887;DHT22;9069;52.044;7.472;2022-10-26T01:49:54;14.70;96.30
17887;DHT22;9069;52.044;7.472;2022-10-26T01:52:22;14.70;96.40
17887;DHT22;9069;52.044;7.472;2022-10-26T01:54:49;14.60;96.40
17887;DHT22;9069;52.044;7.472;2022-10-26T01:57:18;14.60;96.30
17887;DHT22;9069;52.044;7.472;2022-10-26T01:59:57;14.60;96.30
17887;DHT22;9069;52.044;7.472;2022-10-26T02:05:20;14.50;96.40
17887;DHT22;9069;52.044;7.472;2022-10-26T02:07:57;14.50;96.30
17887;DHT22;9069;52.044;7.472;2022-10-26T02:11:00;14.50;96.30
17887;DHT22;9069;52.044;7.472;2022-10-26T02:21:27;14.40;96.40
17887;DHT22;9069;52.044;7.472;2022-10-26T02:23:57;14.40;96.50
17887;DHT22;9069;52.044;7.472;2022-10-26T02:26:27;14.30;96.50
17887;DHT22;9069;52.044;7.472;2022-10-26T02:28:57;14.30;96.60
17887;DHT22;9069;52.044;7.472;2022-10-26T02:31:26;14.20;96.60
17887;DHT22;9069;52.044;7.472;2022-10-26T02:33:56;14.20;96.70
17887;DHT22;9069;52.044;7.472;2022-10-26T02:36:28;14.20;96.70
17887;DHT22;9069;52.044;7.472;2022-10-26T02:39:04;14.20;96.80
17887;DHT22;9069;52.044;7.472;2022-10-26T02:41:33;14.20;96.80
17887;DHT22;9069;52.044;7.472;2022-10-26T02:44:32;14.10;96.90
17887;DHT22;9069;52.044;7.472;2022-10-26T02:47:00;14.20;97.10
17887;DHT22;9069;52.044;7.472;2022-10-26T02:49:27;14.10;96.90
17887;DHT22;9069;52.044;7.472;2022-10-26T02:54:58;14.10;97.00
17887;DHT22;9069;52.044;7.472;2022-10-26T02:57:38;14.10;97.00
17887;DHT22;9069;52.044;7.472;2022-10-26T03:00:11;14.10;97.00
17887;DHT22;9069;52.044;7.472;2022-10-26T03:02:41;14.00;96.90
17887;DHT22;9069;52.044;7.472;2022-10-26T03:05:19;14.00;96.80
17887;DHT22;9069;52.044;7.472;2022-10-26T03:07:46;14.00;96.90
17887;DHT22;9069;52.044;7.472;2022-10-26T03:10:13;14.00;96.90
17887;DHT22;9069;52.044;7.472;2022-10-26T03:12:40;13.90;97.00
17887;DHT22;9069;52.044;7.472;2022-10-26T03:15:07;13.90;97.00
17887;DHT22;9069;52.044;7.472;2022-10-26T03:17:34;13.90;97.10
17887;DHT22;9069;52.044;7.472;2022-10-26T03:20:01;13.90;97.20
17887;DHT22;9069;52.044;7.472;2022-10-26T03:22:27;13.80;97.20
17887;DHT22;9069;52.044;7.472;2022-10-26T03:24:54;13.80;97.30
17887;DHT22;9069;52.044;7.472;2022-10-26T03:27:21;13.80;97.40
17887;DHT22;9069;52.044;7.472;2022-10-26T03:29:48;13.80;97.50
17887;DHT22;9069;52.044;7.472;2022-10-26T03:32:15;13.80;97.50
17887;DHT22;9069;52.044;7.472;2022-10-26T03:34:41;13.80;97.60
17887;DHT22;9069;52.044;7.472;2022-10-26T03:37:08;13.80;97.70
17887;DHT22;9069;52.044;7.472;2022-10-26T03:39:35;13.90;97.70
17887;DHT22;9069;52.044;7.472;2022-10-26T03:42:01;13.90;97.80
17887;DHT22;9069;52.044;7.472;2022-10-26T03:44:28;13.90;97.80
17887;DHT22;9069;52.044;7.472;2022-10-26T03:46:55;13.90;97.80
17887;DHT22;9069;52.044;7.472;2022-10-26T03:49:22;14.00;97.90
17887;DHT22;9069;52.044;7.472;2022-10-26T03:51:48;14.00;97.90
17887;DHT22;9069;52.044;7.472;2022-10-26T03:54:15;14.00;97.90
17887;DHT22;9069;52.044;7.472;2022-10-26T03:56:41;14.00;97.90
17887;DHT22;9069;52.044;7.472;2022-10-26T03:59:08;14.10;97.90
17887;DHT22;9069;52.044;7.472;2022-10-26T04:01:35;14.10;97.90
17887;DHT22;9069;52.044;7.472;2022-10-26T04:04:01;14.10;97.90
17887;DHT22;9069;52.044;7.472;2022-10-26T04:06:28;14.10;97.90
17887;DHT22;9069;52.044;7.472;2022-10-26T04:08:55;14.20;97.90
17887;DHT22;9069;52.044;7.472;2022-10-26T04:11:28;14.20;97.90
17887;DHT22;9069;52.044;7.472;2022-10-26T04:13:55;14.20;97.90
17887;DHT22;9069;52.044;7.472;2022-10-26T04:16:25;14.20;97.90
17887;DHT22;9069;52.044;7.472;2022-10-26T04:18:59;14.20;97.90
17887;DHT22;9069;52.044;7.472;2022-10-26T04:21:26;14.30;97.90
17887;DHT22;9069;52.044;7.472;2022-10-26T04:23:52;14.30;97.90
17887;DHT22;9069;52.044;7.472;2022-10-26T04:26:19;14.30;97.80
17887;DHT22;9069;52.044;7.472;2022-10-26T04:28:46;14.30;97.70
17887;DHT22;9069;52.044;7.472;2022-10-26T04:31:13;14.30;97.60
17887;DHT22;9069;52.044;7.472;2022-10-26T04:33:39;14.30;97.50
17887;DHT22;9069;52.044;7.472;2022-10-26T04:36:06;14.30;97.50
17887;DHT22;9069;52.044;7.472;2022-10-26T04:38:33;14.30;97.50
17887;DHT22;9069;52.044;7.472;2022-10-26T04:40:59;14.20;97.50
17887;DHT22;9069;52.044;7.472;2022-10-26T04:43:26;14.20;97.60
17887;DHT22;9069;52.044;7.472;2022-10-26T04:45:56;14.20;97.70
17887;DHT22;9069;52.044;7.472;2022-10-26T04:48:23;14.20;97.90
17887;DHT22;9069;52.044;7.472;2022-10-26T04:51:00;14.20;97.80
17887;DHT22;9069;52.044;7.472;2022-10-26T04:53:27;14.20;97.90
17887;DHT22;9069;52.044;7.472;2022-10-26T04:55:57;14.20;97.90
17887;DHT22;9069;52.044;7.472;2022-10-26T04:58:25;14.20;97.90
17887;DHT22;9069;52.044;7.472;2022-10-26T05:00:52;14.20;97.80
17887;DHT22;9069;52.044;7.472;2022-10-26T05:03:19;14.20;97.80
17887;DHT22;9069;52.044;7.472;2022-10-26T05:05:46;14.20;97.80
17887;DHT22;9069;52.044;7.472;2022-10-26T05:08:14;14.20;97.80
17887;DHT22;9069;52.044;7.472;2022-10-26T05:10:41;14.30;97.90
17887;DHT22;9069;52.044;7.472;2022-10-26T05:13:09;14.20;97.90
17887;DHT22;9069;52.044;7.472;2022-10-26T05:15:36;14.20;97.90
17887;DHT22;9069;52.044;7.472;2022-10-26T05:18:04;14.20;97.90
17887;DHT22;9069;52.044;7.472;2022-10-26T05:20:32;14.30;98.00
17887;DHT22;9069;52.044;7.472;2022-10-26T05:23:01;14.20;97.90
17887;DHT22;9069;52.044;7.472;2022-10-26T05:25:30;14.30;97.90
17887;DHT22;9069;52.044;7.472;2022-10-26T05:28:02;14.20;97.90
17887;DHT22;9069;52.044;7.472;2022-10-26T05:30:30;14.20;97.90
17887;DHT22;9069;52.044;7.472;2022-10-26T05:33:00;14.20;97.80
17887;DHT22;9069;52.044;7.472;2022-10-26T05:35:31;14.20;97.70
17887;DHT22;9069;52.044;7.472;2022-10-26T05:37:58;14.20;97.70
17887;DHT22;9069;52.044;7.472;2022-10-26T05:40:25;14.20;97.70
17887;DHT22;9069;52.044;7.472;2022-10-26T05:42:52;14.20;97.70
17887;DHT22;9069;52.044;7.472;2022-10-26T05:45:19;14.10;97.60
17887;DHT22;9069;52.044;7.472;2022-10-26T05:47:46;14.10;97.70
17887;DHT22;9069;52.044;7.472;2022-10-26T05:50:13;14.10;97.70
17887;DHT22;9069;52.044;7.472;2022-10-26T05:52:44;14.10;97.70
17887;DHT22;9069;52.044;7.472;2022-10-26T05:55:14;14.10;97.80
17887;DHT22;9069;52.044;7.472;2022-10-26T05:57:41;14.10;97.80
17887;DHT22;9069;52.044;7.472;2022-10-26T06:00:14;14.10;97.90
17887;DHT22;9069;52.044;7.472;2022-10-26T06:03:05;14.00;97.90
17887;DHT22;9069;52.044;7.472;2022-10-26T06:05:54;14.00;98.10
17887;DHT22;9069;52.044;7.472;2022-10-26T06:08:23;14.00;98.00
17887;DHT22;9069;52.044;7.472;2022-10-26T06:10:51;14.00;97.90
17887;DHT22;9069;52.044;7.472;2022-10-26T06:13:18;14.00;98.00
17887;DHT22;9069;52.044;7.472;2022-10-26T06:21:40;14.00;98.00
17887;DHT22;9069;52.044;7.472;2022-10-26T06:26:49;14.00;98.20
17887;DHT22;9069;52.044;7.472;2022-10-26T06:29:44;14.00;98.20
17887;DHT22;9069;52.044;7.472;2022-10-26T06:32:15;14.00;98.30
17887;DHT22;9069;52.044;7.472;2022-10-26T06:34:48;14.00;98.20
17887;DHT22;9069;52.044;7.472;2022-10-26T06:37:16;14.00;98.30
17887;DHT22;9069;52.044;7.472;2022-10-26T06:39:45;13.90;98.30
17887;DHT22;9069;52.044;7.472;2022-10-26T06:42:17;14.00;98.40
17887;DHT22;9069;52.044;7.472;2022-10-26T06:44:44;13.90;98.40
17887;DHT22;9069;52.044;7.472;2022-10-26T06:47:26;14.00;98.50
17887;DHT22;9069;52.044;7.472;2022-10-26T06:50:10;14.00;98.60
17887;DHT22;9069;52.044;7.472;2022-10-26T06:52:47;14.00;98.50
17887;DHT22;9069;52.044;7.472;2022-10-26T06:55:17;14.00;98.90
17887;DHT22;9069;52.044;7.472;2022-10-26T06:57:44;14.00;98.50
17887;DHT22;9069;52.044;7.472;2022-10-26T07:00:22;14.00;98.50
17887;DHT22;9069;52.044;7.472;2022-10-26T07:02:50;14.00;98.70
17887;DHT22;9069;52.044;7.472;2022-10-26T07:05:17;14.00;98.60
17887;DHT22;9069;52.044;7.472;2022-10-26T07:07:45;14.10;98.70
17887;DHT22;9069;52.044;7.472;2022-10-26T07:10:14;14.10;98.70
17887;DHT22;9069;52.044;7.472;2022-10-26T07:12:40;14.10;98.70
17887;DHT22;9069;52.044;7.472;2022-10-26T07:15:07;14.10;98.80
17887;DHT22;9069;52.044;7.472;2022-10-26T07:17:46;14.10;98.80
17887;DHT22;9069;52.044;7.472;2022-10-26T07:20:16;14.20;98.90
17887;DHT22;9069;52.044;7.472;2022-10-26T07:22:43;14.20;98.80
17887;DHT22;9069;52.044;7.472;2022-10-26T07:25:10;14.20;98.80
17887;DHT22;9069;52.044;7.472;2022-10-26T07:27:38;14.20;98.80
17887;DHT22;9069;52.044;7.472;2022-10-26T07:30:05;14.20;98.80
17887;DHT22;9069;52.044;7.472;2022-10-26T07:32:31;14.30;98.80
17887;DHT22;9069;52.044;7.472;2022-10-26T07:34:58;14.30;98.90
17887;DHT22;9069;52.044;7.472;2022-10-26T07:37:25;14.30;98.90
17887;DHT22;9069;52.044;7.472;2022-10-26T07:39:51;14.30;98.90
17887;DHT22;9069;52.044;7.472;2022-10-26T07:42:18;14.30;98.90
17887;DHT22;9069;52.044;7.472;2022-10-26T07:44:45;14.30;99.00
17887;DHT22;9069;52.044;7.472;2022-10-26T07:47:12;14.40;99.00
17887;DHT22;9069;52.044;7.472;2022-10-26T07:49:39;14.40;99.10
17887;DHT22;9069;52.044;7.472;2022-10-26T07:52:06;14.40;99.10
17887;DHT22;9069;52.044;7.472;2022-10-26T07:54:32;14.40;99.10
17887;DHT22;9069;52.044;7.472;2022-10-26T07:56:59;14.40;99.20
17887;DHT22;9069;52.044;7.472;2022-10-26T07:59:26;14.50;99.20
17887;DHT22;9069;52.044;7.472;2022-10-26T08:01:53;14.50;99.30
17887;DHT22;9069;52.044;7.472;2022-10-26T08:04:20;14.60;99.40
17887;DHT22;9069;52.044;7.472;2022-10-26T08:06:46;14.60;99.50
17887;DHT22;9069;52.044;7.472;2022-10-26T08:09:14;14.60;99.50
17887;DHT22;9069;52.044;7.472;2022-10-26T08:11:40;14.70;99.60
17887;DHT22;9069;52.044;7.472;2022-10-26T08:14:09;14.70;99.60
17887;DHT22;9069;52.044;7.472;2022-10-26T08:16:37;14.80;99.70
17887;DHT22;9069;52.044;7.472;2022-10-26T08:19:06;14.90;99.80
17887;DHT22;9069;52.044;7.472;2022-10-26T08:21:33;14.90;99.80
17887;DHT22;9069;52.044;7.472;2022-10-26T08:24:06;15.00;99.80
17887;DHT22;9069;52.044;7.472;2022-10-26T08:26:32;15.10;99.90
17887;DHT22;9069;52.044;7.472;2022-10-26T08:28:59;15.20;99.90
17887;DHT22;9069;52.044;7.472;2022-10-26T08:31:26;15.30;99.90
17887;DHT22;9069;52.044;7.472;2022-10-26T08:33:52;15.50;99.90
17887;DHT22;9069;52.044;7.472;2022-10-26T08:36:23;15.60;99.90
17887;DHT22;9069;52.044;7.472;2022-10-26T08:38:50;15.70;99.90
17887;DHT22;9069;52.044;7.472;2022-10-26T08:41:27;15.90;99.90
17887;DHT22;9069;52.044;7.472;2022-10-26T08:44:04;16.20;99.90
17887;DHT22;9069;52.044;7.472;2022-10-26T08:46:36;16.40;99.90
17887;DHT22;9069;52.044;7.472;2022-10-26T08:49:21;16.60;99.90
17887;DHT22;9069;52.044;7.472;2022-10-26T08:51:53;17.00;99.90
17887;DHT22;9069;52.044;7.472;2022-10-26T08:54:38;17.30;99.90
17887;DHT22;9069;52.044;7.472;2022-10-26T08:57:30;17.60;99.90
17887;DHT22;9069;52.044;7.472;2022-10-26T09:00:02;17.90;99.20
17887;DHT22;9069;52.044;7.472;2022-10-26T09:02:29;18.20;99.10
17887;DHT22;9069;52.044;7.472;2022-10-26T09:04:57;18.40;98.70
17887;DHT22;9069;52.044;7.472;2022-10-26T09:09:57;18.80;97.90
17887;DHT22;9069;52.044;7.472;2022-10-26T09:12:42;18.90;97.60
17887;DHT22;9069;52.044;7.472;2022-10-26T09:15:20;19.00;97.00
17887;DHT22;9069;52.044;7.472;2022-10-26T09:18:05;19.10;97.00
17887;DHT22;9069;52.044;7.472;2022-10-26T09:23:20;19.30;97.30
17887;DHT22;9069;52.044;7.472;2022-10-26T09:26:01;19.50;98.30
17887;DHT22;9069;52.044;7.472;2022-10-26T09:28:32;19.70;98.60
17887;DHT22;9069;52.044;7.472;2022-10-26T09:31:00;20.00;99.10
17887;DHT22;9069;52.044;7.472;2022-10-26T09:33:28;20.40;99.10
17887;DHT22;9069;52.044;7.472;2022-10-26T09:36:07;20.70;98.80
17887;DHT22;9069;52.044;7.472;2022-10-26T09:38:50;21.20;97.30
17887;DHT22;9069;52.044;7.472;2022-10-26T09:46:57;22.60;97.40
17887;DHT22;9069;52.044;7.472;2022-10-26T09:49:52;23.00;96.10
17887;DHT22;9069;52.044;7.472;2022-10-26T09:52:17;23.60;95.60
17887;DHT22;9069;52.044;7.472;2022-10-26T09:54:44;24.10;95.70
17887;DHT22;9069;52.044;7.472;2022-10-26T09:57:13;24.50;94.10
17887;DHT22;9069;52.044;7.472;2022-10-26T09:59:41;24.80;91.90
17887;DHT22;9069;52.044;7.472;2022-10-26T10:05:00;25.20;88.60
17887;DHT22;9069;52.044;7.472;2022-10-26T10:07:27;25.30;90.00
17887;DHT22;9069;52.044;7.472;2022-10-26T10:10:06;25.50;87.90
17887;DHT22;9069;52.044;7.472;2022-10-26T10:12:33;25.50;83.00
17887;DHT22;9069;52.044;7.472;2022-10-26T10:15:00;25.50;85.00
17887;DHT22;9069;52.044;7.472;2022-10-26T10:17:26;25.40;84.10
17887;DHT22;9069;52.044;7.472;2022-10-26T10:19:53;25.30;82.00
17887;DHT22;9069;52.044;7.472;2022-10-26T10:22:24;25.30;80.70
17887;DHT22;9069;52.044;7.472;2022-10-26T10:24:58;25.20;78.80
17887;DHT22;9069;52.044;7.472;2022-10-26T10:27:26;25.10;78.60
17887;DHT22;9069;52.044;7.472;2022-10-26T10:29:55;25.00;79.20
17887;DHT22;9069;52.044;7.472;2022-10-26T10:32:30;24.90;78.50
17887;DHT22;9069;52.044;7.472;2022-10-26T10:35:28;24.80;78.40
17887;DHT22;9069;52.044;7.472;2022-10-26T10:37:54;24.70;77.40
17887;DHT22;9069;52.044;7.472;2022-10-26T10:40:26;24.60;79.00
17887;DHT22;9069;52.044;7.472;2022-10-26T10:43:02;24.50;77.70
17887;DHT22;9069;52.044;7.472;2022-10-26T10:45:30;24.40;77.40
17887;DHT22;9069;52.044;7.472;2022-10-26T10:48:16;24.30;78.80
17887;DHT22;9069;52.044;7.472;2022-10-26T10:51:04;24.30;77.40
17887;DHT22;9069;52.044;7.472;2022-10-26T10:53:50;24.20;76.90
17887;DHT22;9069;52.044;7.472;2022-10-26T10:56:33;24.10;77.20
17887;DHT22;9069;52.044;7.472;2022-10-26T10:59:14;24.00;77.20
17887;DHT22;9069;52.044;7.472;2022-10-26T11:07:14;23.80;78.30
17887;DHT22;9069;52.044;7.472;2022-10-26T11:09:45;23.70;79.30
17887;DHT22;9069;52.044;7.472;2022-10-26T11:12:33;23.70;79.50
17887;DHT22;9069;52.044;7.472;2022-10-26T11:15:06;23.70;79.30
17887;DHT22;9069;52.044;7.472;2022-10-26T11:17:52;23.60;79.70
17887;DHT22;9069;52.044;7.472;2022-10-26T11:20:23;23.60;79.70
17887;DHT22;9069;52.044;7.472;2022-10-26T11:25:33;23.50;81.30
17887;DHT22;9069;52.044;7.472;2022-10-26T11:28:11;23.50;80.60
17887;DHT22;9069;52.044;7.472;2022-10-26T11:30:44;23.40;81.60
17887;DHT22;9069;52.044;7.472;2022-10-26T11:33:14;23.40;81.70
17887;DHT22;9069;52.044;7.472;2022-10-26T11:36:00;23.40;82.90
17887;DHT22;9069;52.044;7.472;2022-10-26T11:38:37;23.40;82.70
17887;DHT22;9069;52.044;7.472;2022-10-26T11:41:32;23.40;81.90
17887;DHT22;9069;52.044;7.472;2022-10-26T11:44:31;23.40;83.60
17887;DHT22;9069;52.044;7.472;2022-10-26T11:47:19;23.40;84.20
17887;DHT22;9069;52.044;7.472;2022-10-26T11:50:12;23.40;84.10
17887;DHT22;9069;52.044;7.472;2022-10-26T11:52:57;23.40;83.30
17887;DHT22;9069;52.044;7.472;2022-10-26T11:55:24;23.40;83.20
17887;DHT22;9069;52.044;7.472;2022-10-26T11:57:52;23.40;84.00
17887;DHT22;9069;52.044;7.472;2022-10-26T12:00:20;23.40;83.60
17887;DHT22;9069;52.044;7.472;2022-10-26T12:03:07;23.40;83.50
17887;DHT22;9069;52.044;7.472;2022-10-26T12:05:50;23.40;82.60
17887;DHT22;9069;52.044;7.472;2022-10-26T12:08:30;23.40;82.70
17887;DHT22;9069;52.044;7.472;2022-10-26T12:17:05;23.40;83.80
17887;DHT22;9069;52.044;7.472;2022-10-26T12:22:18;23.40;82.70
17887;DHT22;9069;52.044;7.472;2022-10-26T12:25:03;23.30;83.70
17887;DHT22;9069;52.044;7.472;2022-10-26T12:27:51;23.30;83.70
17887;DHT22;9069;52.044;7.472;2022-10-26T12:30:23;23.30;82.60
17887;DHT22;9069;52.044;7.472;2022-10-26T12:32:53;23.30;83.90
17887;DHT22;9069;52.044;7.472;2022-10-26T12:35:41;23.30;83.40
17887;DHT22;9069;52.044;7.472;2022-10-26T12:41:17;23.20;83.40
17887;DHT22;9069;52.044;7.472;2022-10-26T12:43:44;23.20;83.10
17887;DHT22;9069;52.044;7.472;2022-10-26T12:56:56;23.10;84.30
17887;DHT22;9069;52.044;7.472;2022-10-26T13:07:28;23.00;85.00
17887;DHT22;9069;52.044;7.472;2022-10-26T13:12:55;23.00;85.00
17887;DHT22;9069;52.044;7.472;2022-10-26T13:15:25;23.00;85.40
17887;DHT22;9069;52.044;7.472;2022-10-26T13:18:06;23.00;86.40
17887;DHT22;9069;52.044;7.472;2022-10-26T13:20:36;22.90;85.80
17887;DHT22;9069;52.044;7.472;2022-10-26T13:23:14;22.90;86.10
17887;DHT22;9069;52.044;7.472;2022-10-26T13:31:13;22.90;86.60
17887;DHT22;9069;52.044;7.472;2022-10-26T13:33:43;22.80;86.30
17887;DHT22;9069;52.044;7.472;2022-10-26T13:36:26;22.80;86.40
17887;DHT22;9069;52.044;7.472;2022-10-26T13:38:57;22.80;86.50
17887;DHT22;9069;52.044;7.472;2022-10-26T13:43:58;22.80;86.60
17887;DHT22;9069;52.044;7.472;2022-10-26T13:46:28;22.70;86.80
17887;DHT22;9069;52.044;7.472;2022-10-26T13:49:06;22.70;86.90
17887;DHT22;9069;52.044;7.472;2022-10-26T13:51:43;22.70;86.90
17887;DHT22;9069;52.044;7.472;2022-10-26T13:59:43;22.60;87.20
17887;DHT22;9069;52.044;7.472;2022-10-26T14:02:21;22.60;87.70
17887;DHT22;9069;52.044;7.472;2022-10-26T14:04:52;22.50;87.80
17887;DHT22;9069;52.044;7.472;2022-10-26T14:07:23;22.60;87.90
17887;DHT22;9069;52.044;7.472;2022-10-26T14:09:55;22.60;88.20
17887;DHT22;9069;52.044;7.472;2022-10-26T14:12:25;22.50;88.30
17887;DHT22;9069;52.044;7.472;2022-10-26T14:15:01;22.50;88.50
17887;DHT22;9069;52.044;7.472;2022-10-26T14:17:29;22.50;89.00
17887;DHT22;9069;52.044;7.472;2022-10-26T14:19:55;22.50;89.30
17887;DHT22;9069;52.044;7.472;2022-10-26T14:22:24;22.50;89.50
17887;DHT22;9069;52.044;7.472;2022-10-26T14:24:58;22.50;89.60
17887;DHT22;9069;52.044;7.472;2022-10-26T14:27:30;22.50;89.70
17887;DHT22;9069;52.044;7.472;2022-10-26T14:29:57;22.50;90.00
17887;DHT22;9069;52.044;7.472;2022-10-26T14:32:44;22.40;90.00
17887;DHT22;9069;52.044;7.472;2022-10-26T14:35:14;22.40;90.10
17887;DHT22;9069;52.044;7.472;2022-10-26T14:40:16;22.40;90.00
17887;DHT22;9069;52.044;7.472;2022-10-26T14:42:44;22.40;90.00
17887;DHT22;9069;52.044;7.472;2022-10-26T14:47:55;22.40;90.10
17887;DHT22;9069;52.044;7.472;2022-10-26T14:50:23;22.40;90.20
17887;DHT22;9069;52.044;7.472;2022-10-26T14:53:14;22.40;90.30
17887;DHT22;9069;52.044;7.472;2022-10-26T14:55:59;22.30;90.20
17887;DHT22;9069;52.044;7.472;2022-10-26T14:58:28;22.30;90.30
17887;DHT22;9069;52.044;7.472;2022-10-26T15:04:28;22.30;90.40
17887;DHT22;9069;52.044;7.472;2022-10-26T15:07:21;22.30;90.40
17887;DHT22;9069;52.044;7.472;2022-10-26T15:09:50;22.20;90.50
17887;DHT22;9069;52.044;7.472;2022-10-26T15:12:37;22.20;90.80
17887;DHT22;9069;52.044;7.472;2022-10-26T15:17:41;22.20;90.70
17887;DHT22;9069;52.044;7.472;2022-10-26T15:20:17;22.10;90.90
17887;DHT22;9069;52.044;7.472;2022-10-26T15:22:59;22.10;90.70
17887;DHT22;9069;52.044;7.472;2022-10-26T15:25:28;22.10;91.10
17887;DHT22;9069;52.044;7.472;2022-10-26T15:28:17;22.00;90.80
17887;DHT22;9069;52.044;7.472;2022-10-26T15:33:40;22.00;90.60
17887;DHT22;9069;52.044;7.472;2022-10-26T15:38:34;21.90;91.00
17887;DHT22;9069;52.044;7.472;2022-10-26T15:41:02;21.90;91.10
17887;DHT22;9069;52.044;7.472;2022-10-26T15:43:29;21.90;91.10
17887;DHT22;9069;52.044;7.472;2022-10-26T15:45:56;21.80;91.20
17887;DHT22;9069;52.044;7.472;2022-10-26T15:48:27;21.80;91.30
17887;DHT22;9069;52.044;7.472;2022-10-26T15:50:56;21.80;91.40
17887;DHT22;9069;52.044;7.472;2022-10-26T15:53:25;21.80;91.40
17887;DHT22;9069;52.044;7.472;2022-10-26T15:55:58;21.70;91.40
17887;DHT22;9069;52.044;7.472;2022-10-26T15:58:27;21.70;91.50
17887;DHT22;9069;52.044;7.472;2022-10-26T16:00:54;21.70;91.40
17887;DHT22;9069;52.044;7.472;2022-10-26T16:03:23;21.60;91.40
17887;DHT22;9069;52.044;7.472;2022-10-26T16:05:55;21.60;91.50
17887;DHT22;9069;52.044;7.472;2022-10-26T16:08:22;21.60;91.40
17887;DHT22;9069;52.044;7.472;2022-10-26T16:10:49;21.50;91.40
17887;DHT22;9069;52.044;7.472;2022-10-26T16:13:17;21.50;91.40
17887;DHT22;9069;52.044;7.472;2022-10-26T16:15:44;21.50;91.40
17887;DHT22;9069;52.044;7.472;2022-10-26T16:18:11;21.40;91.40
17887;DHT22;9069;52.044;7.472;2022-10-26T16:20:37;21.40;91.40
17887;DHT22;9069;52.044;7.472;2022-10-26T16:23:04;21.40;91.30
17887;DHT22;9069;52.044;7.472;2022-10-26T16:25:39;21.30;91.40
17887;DHT22;9069;52.044;7.472;2022-10-26T16:28:06;21.30;91.60
17887;DHT22;9069;52.044;7.472;2022-10-26T16:30:32;21.20;91.50
17887;DHT22;9069;52.044;7.472;2022-10-26T16:33:02;21.20;91.50
17887;DHT22;9069;52.044;7.472;2022-10-26T16:35:29;21.10;91.50
17887;DHT22;9069;52.044;7.472;2022-10-26T16:37:55;21.10;91.60
17887;DHT22;9069;52.044;7.472;2022-10-26T16:40:22;21.00;91.70
17887;DHT22;9069;52.044;7.472;2022-10-26T16:42:48;21.00;91.70
17887;DHT22;9069;52.044;7.472;2022-10-26T16:45:15;21.00;91.70
17887;DHT22;9069;52.044;7.472;2022-10-26T16:47:42;20.90;91.70
17887;DHT22;9069;52.044;7.472;2022-10-26T16:50:11;20.90;91.70
17887;DHT22;9069;52.044;7.472;2022-10-26T16:52:38;20.80;91.80
17887;DHT22;9069;52.044;7.472;2022-10-26T16:55:06;20.80;91.80
17887;DHT22;9069;52.044;7.472;2022-10-26T16:57:34;20.70;91.90
17887;DHT22;9069;52.044;7.472;2022-10-26T17:00:03;20.70;92.00
17887;DHT22;9069;52.044;7.472;2022-10-26T17:02:30;20.60;92.00
17887;DHT22;9069;52.044;7.472;2022-10-26T17:04:57;20.60;92.00
17887;DHT22;9069;52.044;7.472;2022-10-26T17:07:29;20.60;92.10
17887;DHT22;9069;52.044;7.472;2022-10-26T17:09:56;20.50;92.10
17887;DHT22;9069;52.044;7.472;2022-10-26T17:12:23;20.50;92.30
17887;DHT22;9069;52.044;7.472;2022-10-26T17:14:49;20.50;92.30
17887;DHT22;9069;52.044;7.472;2022-10-26T17:17:16;20.40;92.30
17887;DHT22;9069;52.044;7.472;2022-10-26T17:19:43;20.40;92.40
17887;DHT22;9069;52.044;7.472;2022-10-26T17:22:10;20.30;92.50
17887;DHT22;9069;52.044;7.472;2022-10-26T17:24:37;20.30;92.50
17887;DHT22;9069;52.044;7.472;2022-10-26T17:27:03;20.20;92.60
17887;DHT22;9069;52.044;7.472;2022-10-26T17:29:30;20.20;92.70
17887;DHT22;9069;52.044;7.472;2022-10-26T17:31:56;20.20;92.70
17887;DHT22;9069;52.044;7.472;2022-10-26T17:34:23;20.20;92.70
17887;DHT22;9069;52.044;7.472;2022-10-26T17:36:50;20.10;92.70
17887;DHT22;9069;52.044;7.472;2022-10-26T17:39:17;20.10;92.80
17887;DHT22;9069;52.044;7.472;2022-10-26T17:41:45;20.10;92.80
17887;DHT22;9069;52.044;7.472;2022-10-26T17:44:11;20.00;92.80
17887;DHT22;9069;52.044;7.472;2022-10-26T17:46:38;20.00;92.90
17887;DHT22;9069;52.044;7.472;2022-10-26T17:49:05;19.90;92.90
17887;DHT22;9069;52.044;7.472;2022-10-26T17:51:31;19.90;93.00
17887;DHT22;9069;52.044;7.472;2022-10-26T17:53:58;19.80;92.90
17887;DHT22;9069;52.044;7.472;2022-10-26T17:56:27;19.90;93.00
17887;DHT22;9069;52.044;7.472;2022-10-26T17:58:56;19.80;93.10
17887;DHT22;9069;52.044;7.472;2022-10-26T18:01:24;19.80;93.20
17887;DHT22;9069;52.044;7.472;2022-10-26T18:03:51;19.70;93.20
17887;DHT22;9069;52.044;7.472;2022-10-26T18:06:19;19.70;93.20